Time;durP1;ratioP1;P1;durP2;ratioP2;P2;SDS_P1;SDS_P2;PMS_P1;PMS_P2;Temp;Humidity;BMP_temperature;BMP_pressure;BME280_temperature;BME280_humidity;BME280_pressure;Samples;Min_cycle;Max_cycle;Signal;HPM_P1;HPM_P2
2023/08/16 00:02:07;;;;;;;22.45;20.38;;;;;;;25.44;53.07;100293.13;4977735;28;98543;-81
2023/08/16 00:04:33;;;;;;;21.65;19.95;;;;;;;25.43;52.86;100297.66;4973929;28;96696;-81
2023/08/16 00:06:59;;;;;;;21.63;20.15;;;;;;;25.39;52.83;100296.25;4974382;28;96891;-81
2023/08/16 00:09:24;;;;;;;23.15;21.13;;;;;;;25.39;52.83;100298.94;4970778;28;98982;-81
2023/08/16 00:11:50;;;;;;;22.45;20.30;;;;;;;25.41;53.04;100301.50;4988681;28;98789;-81
2023/08/16 00:14:15;;;;;;;23.08;20.10;;;;;;;25.30;53.00;100303.38;4989094;28;96911;-81
2023/08/16 00:16:41;;;;;;;22.38;20.45;;;;;;;25.20;53.26;100289.13;4988795;28;97213;-81
2023/08/16 00:19:07;;;;;;;23.10;20.75;;;;;;;25.10;53.14;100296.34;4987507;28;98976;-81
2023/08/16 00:21:32;;;;;;;22.38;20.65;;;;;;;25.07;53.04;100297.50;4986500;28;98563;-81
2023/08/16 00:23:58;;;;;;;22.40;20.38;;;;;;;25.07;53.29;100304.69;4985904;28;97586;-81
2023/08/16 00:26:23;;;;;;;22.05;20.00;;;;;;;25.07;53.31;100302.00;4970933;28;96836;-81
2023/08/16 00:28:49;;;;;;;21.98;20.08;;;;;;;25.04;53.47;100305.81;4987833;28;98688;-81
2023/08/16 00:31:15;;;;;;;22.75;21.08;;;;;;;25.10;53.77;100311.63;4980334;28;98331;-81
2023/08/16 00:33:41;;;;;;;23.17;21.42;;;;;;;25.07;53.35;100312.75;4975883;28;96823;-81
2023/08/16 00:36:07;;;;;;;21.85;20.00;;;;;;;25.08;53.64;100309.94;4988453;28;97928;-81
2023/08/16 00:38:33;;;;;;;22.38;20.42;;;;;;;25.11;53.71;100313.31;4956731;28;100441;-82
2023/08/16 00:40:59;;;;;;;21.77;19.88;;;;;;;25.11;53.71;100311.47;4972187;28;96789;-81
2023/08/16 00:43:25;;;;;;;22.75;20.95;;;;;;;25.11;53.38;100316.84;4983481;28;96710;-82
2023/08/16 00:45:50;;;;;;;22.52;20.75;;;;;;;25.02;54.02;100299.78;4977442;28;96981;-81
2023/08/16 00:48:17;;;;;;;24.00;21.90;;;;;;;24.99;53.80;100309.97;4993559;28;98822;-82
2023/08/16 00:50:45;;;;;;;24.00;21.45;;;;;;;24.98;54.09;100316.31;4992733;28;97472;-81
2023/08/16 00:53:12;;;;;;;25.33;22.95;;;;;;;24.91;54.23;100313.38;4959802;28;97235;-82
2023/08/16 00:55:38;;;;;;;24.48;22.38;;;;;;;24.90;54.19;100316.19;4987108;28;96891;-81
2023/08/16 00:58:04;;;;;;;25.17;22.67;;;;;;;24.89;54.36;100318.03;4975808;28;98698;-82
2023/08/16 01:00:30;;;;;;;24.95;22.88;;;;;;;24.82;54.38;100314.25;4981497;28;98871;-81
2023/08/16 01:02:56;;;;;;;23.85;21.85;;;;;;;24.83;54.53;100319.44;4959889;28;97446;-81
2023/08/16 01:05:23;;;;;;;24.35;22.35;;;;;;;24.79;54.48;100320.75;4993734;28;97355;-81
2023/08/16 01:07:48;;;;;;;27.42;24.58;;;;;;;24.74;54.60;100314.09;4976256;28;98481;-81
2023/08/16 01:10:14;;;;;;;27.48;24.95;;;;;;;24.73;54.62;100323.16;4980037;28;98682;-82
2023/08/16 01:12:47;;;;;;;26.88;24.17;;;;;;;24.69;54.93;100316.38;4993192;28;96840;-82
2023/08/16 01:15:32;;;;;;;27.90;25.02;;;;;;;24.68;54.96;100325.41;4960414;28;96877;-81
2023/08/16 01:17:59;;;;;;;27.50;24.63;;;;;;;24.61;55.10;100314.41;4976223;28;97799;-82
2023/08/16 01:20:25;;;;;;;27.55;24.70;;;;;;;24.65;55.22;100314.97;4993770;28;98379;-82
2023/08/16 01:23:38;;;;;;;25.35;23.13;;;;;;;24.59;54.84;100317.22;4958412;28;96705;-81
2023/08/16 01:26:09;;;;;;;24.65;22.35;;;;;;;24.51;55.13;100318.94;4991638;28;96858;-82
2023/08/16 01:28:35;;;;;;;23.88;22.05;;;;;;;24.46;55.20;100319.34;4970443;28;100742;-81
2023/08/16 01:31:03;;;;;;;25.60;23.33;;;;;;;24.47;55.50;100315.69;4975970;28;98321;-82
2023/08/16 01:33:29;;;;;;;23.95;21.92;;;;;;;24.40;55.33;100301.97;4985654;28;96886;-81
2023/08/16 01:35:56;;;;;;;24.55;22.15;;;;;;;24.44;55.53;100315.97;4973480;28;97028;-81
2023/08/16 01:38:21;;;;;;;23.27;21.33;;;;;;;24.46;55.63;100318.50;4976572;28;98987;-82
2023/08/16 01:40:55;;;;;;;22.70;20.70;;;;;;;24.42;55.75;100309.03;4972032;28;98383;-82
2023/08/16 01:43:20;;;;;;;24.33;21.95;;;;;;;24.39;55.88;100313.69;4966041;28;96790;-81
2023/08/16 01:45:50;;;;;;;23.20;21.27;;;;;;;24.36;55.99;100310.44;4993365;28;96883;-82
2023/08/16 01:48:17;;;;;;;23.53;21.40;;;;;;;24.33;55.87;100308.88;4956403;28;100752;-82
2023/08/16 01:50:43;;;;;;;23.27;21.52;;;;;;;24.35;56.20;100314.97;4971634;28;98823;-82
2023/08/16 01:53:08;;;;;;;22.90;21.23;;;;;;;24.33;56.06;100308.03;4986634;28;96807;-82
2023/08/16 01:55:34;;;;;;;23.27;21.25;;;;;;;24.35;56.03;100312.28;4955601;28;96960;-82
2023/08/16 01:58:00;;;;;;;23.15;21.45;;;;;;;24.30;56.02;100311.00;4979075;28;98928;-82
2023/08/16 02:00:26;;;;;;;22.45;20.85;;;;;;;24.28;56.19;100324.53;4975418;28;97617;-82
2023/08/16 02:02:52;;;;;;;22.95;21.10;;;;;;;24.25;56.41;100318.63;4958762;28;97095;-82
2023/08/16 02:05:17;;;;;;;22.85;20.73;;;;;;;24.24;56.34;100327.66;4982518;28;96802;-82
2023/08/16 02:07:43;;;;;;;22.70;21.00;;;;;;;24.23;56.37;100334.00;4983732;28;98795;-82
2023/08/16 02:10:09;;;;;;;22.92;21.33;;;;;;;24.23;56.38;100339.34;4974174;28;98433;-82
2023/08/16 02:12:34;;;;;;;23.65;21.75;;;;;;;24.16;56.50;100341.75;4963901;28;96737;-82
2023/08/16 02:15:00;;;;;;;23.58;21.77;;;;;;;24.01;56.61;100345.81;4992407;28;96980;-82
2023/08/16 02:17:26;;;;;;;23.48;21.73;;;;;;;23.99;56.61;100345.94;4974994;28;100346;-82
2023/08/16 02:19:51;;;;;;;24.33;22.17;;;;;;;23.95;56.61;100344.53;4973050;28;99987;-82
2023/08/16 02:22:17;;;;;;;24.25;21.95;;;;;;;23.92;56.70;100342.97;4991517;28;97258;-82
2023/08/16 02:24:42;;;;;;;23.08;21.25;;;;;;;23.89;56.84;100335.22;4987792;28;96956;-82
2023/08/16 02:27:08;;;;;;;22.67;20.60;;;;;;;23.90;56.85;100339.59;4992536;28;98671;-83
2023/08/16 02:29:34;;;;;;;23.23;21.00;;;;;;;23.90;56.59;100352.16;4993008;28;98287;-82
2023/08/16 02:31:59;;;;;;;23.60;21.85;;;;;;;23.90;56.99;100354.81;4989270;28;98188;-82
2023/08/16 02:34:24;;;;;;;22.90;21.30;;;;;;;23.97;56.83;100363.16;4987776;28;97134;-82
2023/08/16 02:36:50;;;;;;;22.42;20.67;;;;;;;23.87;56.87;100339.03;4964861;28;100282;-83
2023/08/16 02:39:17;;;;;;;23.02;21.23;;;;;;;23.88;56.89;100359.47;4992479;28;98770;-83
2023/08/16 02:41:42;;;;;;;24.15;21.77;;;;;;;23.87;56.74;100349.75;4974844;28;96895;-83
2023/08/16 02:44:08;;;;;;;24.13;21.73;;;;;;;23.86;56.99;100364.13;4992389;28;96825;-83
2023/08/16 02:46:33;;;;;;;22.80;21.08;;;;;;;23.76;57.00;100357.88;4992004;28;98979;-83
2023/08/16 02:48:59;;;;;;;24.38;21.77;;;;;;;23.77;57.14;100362.28;4961149;28;99876;-82
2023/08/16 02:51:24;;;;;;;23.17;21.23;;;;;;;23.71;57.27;100356.47;4992751;28;96812;-83
2023/08/16 02:53:50;;;;;;;23.48;21.88;;;;;;;23.72;57.38;100358.16;4971569;28;97256;-83
2023/08/16 02:56:15;;;;;;;23.67;21.60;;;;;;;23.70;57.31;100349.41;4973727;28;101126;-82
2023/08/16 02:58:41;;;;;;;24.55;22.52;;;;;;;23.71;57.32;100348.44;4988406;28;98258;-83
2023/08/16 03:01:07;;;;;;;23.30;21.45;;;;;;;23.73;57.47;100354.47;4969727;28;96830;-83
2023/08/16 03:03:33;;;;;;;23.38;21.55;;;;;;;23.66;57.61;100347.94;4990298;28;96890;-83
2023/08/16 03:05:58;;;;;;;24.33;22.48;;;;;;;23.61;57.64;100334.09;4979896;28;98949;-83
2023/08/16 03:08:24;;;;;;;25.10;22.52;;;;;;;23.38;58.02;100324.56;4983899;28;98599;-83
2023/08/16 03:10:50;;;;;;;24.40;21.92;;;;;;;23.39;57.60;100323.63;4983963;28;96848;-83
2023/08/16 03:13:15;;;;;;;23.52;21.63;;;;;;;23.41;57.72;100327.81;4971293;28;97262;-83
2023/08/16 03:15:41;;;;;;;23.75;21.65;;;;;;;23.50;57.70;100329.72;4974489;28;99351;-83
2023/08/16 03:18:06;;;;;;;23.80;21.48;;;;;;;23.50;57.67;100336.88;4969641;28;100156;-83
2023/08/16 03:20:32;;;;;;;23.92;21.58;;;;;;;23.50;57.86;100345.78;4973130;28;97073;-83
2023/08/16 03:22:58;;;;;;;24.45;21.92;;;;;;;23.54;57.69;100353.56;4968723;28;96817;-83
2023/08/16 03:25:24;;;;;;;23.90;21.48;;;;;;;23.52;57.90;100342.13;4973622;28;100886;-82
2023/08/16 03:27:49;;;;;;;26.73;22.33;;;;;;;23.45;57.83;100345.34;4988681;28;98643;-82
2023/08/16 03:30:15;;;;;;;23.98;21.48;;;;;;;23.48;57.83;100345.06;4969451;28;96939;-82
2023/08/16 03:32:42;;;;;;;24.00;21.80;;;;;;;23.46;57.69;100346.19;4972489;28;96941;-82
2023/08/16 03:35:08;;;;;;;24.38;22.08;;;;;;;23.53;57.60;100355.38;4983113;28;99152;-83
2023/08/16 03:37:35;;;;;;;24.42;21.92;;;;;;;23.54;57.71;100364.28;4971976;28;99968;-83
2023/08/16 03:40:00;;;;;;;23.75;21.75;;;;;;;23.54;57.76;100356.25;4961979;28;96696;-83
2023/08/16 03:42:26;;;;;;;24.65;22.30;;;;;;;23.48;57.63;100358.47;4980885;28;96931;-82
2023/08/16 03:44:51;;;;;;;22.73;20.77;;;;;;;23.53;57.59;100360.72;4957801;28;99216;-82
2023/08/16 03:47:17;;;;;;;23.08;21.00;;;;;;;23.54;57.63;100362.44;4953498;28;99247;-82
2023/08/16 03:49:44;;;;;;;23.45;21.75;;;;;;;23.53;57.43;100362.56;4981399;28;96748;-82
2023/08/16 03:52:10;;;;;;;22.85;20.65;;;;;;;23.46;57.05;100370.28;4976508;28;97275;-83
2023/08/16 03:54:35;;;;;;;21.83;20.17;;;;;;;23.39;57.20;100363.78;4961944;28;98926;-83
2023/08/16 03:57:01;;;;;;;24.55;22.65;;;;;;;23.45;57.00;100365.94;4988256;28;98447;-83
2023/08/16 03:59:26;;;;;;;23.38;21.17;;;;;;;23.30;57.48;100383.31;4971266;28;96803;-82
2023/08/16 04:01:52;;;;;;;22.45;20.70;;;;;;;23.34;57.20;100366.84;4986840;28;97402;-82
2023/08/16 04:04:17;;;;;;;21.65;19.70;;;;;;;23.49;57.17;100386.94;4989064;28;99084;-83
2023/08/16 04:06:43;;;;;;;23.58;21.48;;;;;;;23.57;57.11;100383.59;4985655;28;98856;-82
2023/08/16 04:09:08;;;;;;;23.30;21.40;;;;;;;23.64;56.97;100386.59;4980898;28;96799;-82
2023/08/16 04:11:34;;;;;;;22.92;20.92;;;;;;;23.70;56.79;100396.78;4972328;28;96758;-82
2023/08/16 04:14:00;;;;;;;23.33;21.17;;;;;;;23.73;56.80;100391.16;4958552;28;100034;-82
2023/08/16 04:16:25;;;;;;;27.00;22.50;;;;;;;23.78;56.49;100391.59;4989073;28;98644;-83
2023/08/16 04:18:53;;;;;;;23.98;22.02;;;;;;;23.81;56.58;100393.16;4973116;28;96974;-83
2023/08/16 04:21:19;;;;;;;23.85;21.85;;;;;;;23.86;56.43;100393.63;4977252;28;96922;-82
2023/08/16 04:23:45;;;;;;;24.95;22.38;;;;;;;23.92;56.02;100396.59;4989548;28;99049;-83
2023/08/16 04:26:11;;;;;;;29.48;23.13;;;;;;;23.90;56.20;100395.03;4976691;28;99623;-82
2023/08/16 04:28:37;;;;;;;23.70;21.60;;;;;;;24.03;56.17;100401.00;4977036;28;97281;-83
2023/08/16 04:31:04;;;;;;;24.35;22.02;;;;;;;24.17;55.96;100399.75;4970363;28;96966;-83
2023/08/16 04:33:30;;;;;;;24.73;22.50;;;;;;;24.28;55.87;100402.31;4968560;28;98078;-82
2023/08/16 04:35:56;;;;;;;24.80;22.52;;;;;;;24.35;55.63;100395.44;4975931;28;100199;-82
2023/08/16 04:38:22;;;;;;;24.08;21.60;;;;;;;24.43;55.20;100402.78;4994313;28;96755;-83
2023/08/16 04:40:51;;;;;;;24.58;22.50;;;;;;;24.57;55.04;100404.22;4976796;28;96847;-82
2023/08/16 04:43:18;;;;;;;24.83;22.98;;;;;;;24.78;54.72;100410.31;4975848;28;100814;-82
2023/08/16 04:45:44;;;;;;;25.13;22.75;;;;;;;24.96;54.14;100413.13;4963518;28;98448;-83
2023/08/16 04:48:10;;;;;;;24.77;22.33;;;;;;;25.12;53.68;100409.00;4968045;28;96821;-82
2023/08/16 04:50:36;;;;;;;25.27;22.77;;;;;;;25.29;53.62;100409.13;4974117;28;97085;-82
2023/08/16 04:53:02;;;;;;;24.38;22.15;;;;;;;25.45;53.18;100407.66;4965346;28;100054;-82
2023/08/16 04:55:28;;;;;;;23.80;21.90;;;;;;;25.63;52.80;100411.31;4992237;28;98632;-82
2023/08/16 04:57:54;;;;;;;25.80;23.13;;;;;;;25.83;52.61;100404.03;4992510;28;96650;-82
2023/08/16 05:00:21;;;;;;;24.92;22.55;;;;;;;25.98;52.37;100404.38;4973802;28;96983;-81
2023/08/16 05:02:52;;;;;;;25.40;23.17;;;;;;;26.13;51.96;100405.56;4961687;28;100573;-82
2023/08/16 05:05:18;;;;;;;25.00;23.02;;;;;;;26.17;51.33;100415.00;4975873;28;100431;-82
2023/08/16 05:07:43;;;;;;;25.92;23.25;;;;;;;26.28;50.91;100411.28;4994161;28;96698;-82
2023/08/16 05:10:11;;;;;;;26.02;23.75;;;;;;;26.42;50.85;100418.81;4975722;28;96953;-82
2023/08/16 05:12:36;;;;;;;25.27;23.30;;;;;;;26.46;50.60;100415.84;4993718;28;97919;-81
2023/08/16 05:15:02;;;;;;;25.40;23.10;;;;;;;26.71;50.56;100425.03;4975926;28;100084;-82
2023/08/16 05:17:30;;;;;;;24.08;22.23;;;;;;;26.82;50.27;100422.09;4976107;28;96896;-82
2023/08/16 05:19:56;;;;;;;24.45;22.25;;;;;;;27.02;50.06;100425.44;4976310;28;96994;-81
2023/08/16 05:22:24;;;;;;;24.65;22.50;;;;;;;27.26;49.33;100425.69;4993466;28;99092;-82
2023/08/16 05:24:50;;;;;;;25.45;23.13;;;;;;;27.74;48.91;100434.22;4972286;28;98859;-82
2023/08/16 05:27:15;;;;;;;26.00;23.27;;;;;;;27.88;48.14;100435.50;4974211;28;96754;-82
2023/08/16 05:29:42;;;;;;;28.25;22.65;;;;;;;28.86;46.19;100441.19;4989312;28;96786;-81
2023/08/16 05:32:08;;;;;;;25.30;23.00;;;;;;;30.53;43.21;100429.63;4991720;28;98631;-82
2023/08/16 05:34:34;;;;;;;26.33;23.67;;;;;;;32.00;40.33;100431.84;4991019;28;98842;-82
2023/08/16 05:37:00;;;;;;;24.05;22.25;;;;;;;33.70;37.57;100441.22;4993727;28;96807;-82
2023/08/16 05:39:25;;;;;;;25.10;22.85;;;;;;;35.22;35.47;100440.03;4989788;28;96933;-82
2023/08/16 05:41:51;;;;;;;24.75;22.33;;;;;;;36.16;34.05;100433.31;4992787;28;98931;-83
2023/08/16 05:44:16;;;;;;;24.38;22.17;;;;;;;36.91;32.75;100431.59;4983862;28;98358;-82
2023/08/16 05:46:42;;;;;;;24.52;22.23;;;;;;;37.72;31.99;100442.69;4983226;28;96858;-82
2023/08/16 05:49:08;;;;;;;25.48;22.75;;;;;;;38.32;31.08;100441.97;4989105;28;96936;-82
2023/08/16 05:51:33;;;;;;;24.73;23.02;;;;;;;39.10;30.42;100441.88;4973020;28;98709;-82
2023/08/16 05:53:59;;;;;;;26.15;23.70;;;;;;;39.64;29.67;100438.19;4989979;28;98922;-82
2023/08/16 05:56:25;;;;;;;23.30;21.70;;;;;;;40.26;29.08;100439.28;4992185;28;96748;-82
2023/08/16 05:58:50;;;;;;;24.48;22.77;;;;;;;40.99;28.11;100452.38;4989135;28;96843;-82
2023/08/16 06:01:16;;;;;;;24.35;22.08;;;;;;;41.59;27.47;100452.53;4990082;28;99179;-82
2023/08/16 06:03:41;;;;;;;22.83;21.25;;;;;;;42.05;27.23;100450.41;4974570;28;98877;-82
2023/08/16 06:06:07;;;;;;;24.55;22.60;;;;;;;42.61;26.63;100450.19;4993140;28;97291;-82
2023/08/16 06:08:32;;;;;;;24.02;22.30;;;;;;;43.08;26.16;100449.50;4987674;28;96872;-83
2023/08/16 06:10:58;;;;;;;24.02;22.42;;;;;;;43.59;25.61;100447.13;4992806;28;98696;-83
2023/08/16 06:13:23;;;;;;;24.95;22.77;;;;;;;44.05;25.07;100452.06;4982012;28;98983;-82
2023/08/16 06:15:50;;;;;;;24.33;22.63;;;;;;;44.53;24.52;100449.97;4978304;28;97007;-82
2023/08/16 06:18:15;;;;;;;25.15;23.08;;;;;;;44.96;23.94;100456.13;4963190;28;97725;-82
2023/08/16 06:20:41;;;;;;;24.98;22.88;;;;;;;45.44;23.52;100448.28;4975725;28;99147;-82
2023/08/16 06:23:07;;;;;;;25.60;23.30;;;;;;;45.37;23.56;100442.22;4990864;28;98239;-82
2023/08/16 06:25:32;;;;;;;24.08;22.38;;;;;;;45.75;22.99;100451.00;4983894;28;97136;-82
2023/08/16 06:27:58;;;;;;;24.23;22.35;;;;;;;46.22;22.61;100450.50;4986927;28;97958;-82
2023/08/16 06:30:23;;;;;;;24.50;22.65;;;;;;;46.45;22.58;100446.22;4981325;28;98908;-82
2023/08/16 06:32:49;;;;;;;23.70;22.10;;;;;;;46.92;21.96;100447.53;4989129;28;98301;-82
2023/08/16 06:35:14;;;;;;;24.50;22.42;;;;;;;47.32;21.61;100439.94;4989732;28;97095;-82
2023/08/16 06:37:40;;;;;;;25.67;23.25;;;;;;;47.83;21.40;100441.38;4986598;28;97601;-82
2023/08/16 06:40:07;;;;;;;24.92;22.73;;;;;;;48.39;20.95;100450.88;4985321;28;99701;-82
2023/08/16 06:42:32;;;;;;;22.85;20.92;;;;;;;48.60;21.07;100437.50;4989611;28;98525;-82
2023/08/16 06:44:59;;;;;;;22.27;20.77;;;;;;;49.25;19.93;100445.84;4976570;28;96773;-81
2023/08/16 06:47:25;;;;;;;23.25;21.52;;;;;;;49.72;19.43;100440.19;4970765;28;96944;-82
2023/08/16 06:49:50;;;;;;;23.17;21.30;;;;;;;50.26;19.19;100449.59;4974083;28;99145;-82
2023/08/16 06:52:16;;;;;;;23.45;21.27;;;;;;;51.03;18.79;100444.94;4973468;28;98167;-82
2023/08/16 06:54:42;;;;;;;22.60;20.92;;;;;;;51.68;18.41;100435.91;4981359;28;96607;-82
2023/08/16 06:57:09;;;;;;;22.40;20.92;;;;;;;52.09;17.84;100434.66;4990647;28;96907;-82
2023/08/16 06:59:36;;;;;;;22.90;21.30;;;;;;;52.67;17.59;100438.94;4989902;28;98656;-82
2023/08/16 07:02:02;;;;;;;22.70;20.97;;;;;;;53.24;17.48;100425.75;4989153;28;98380;-82
2023/08/16 07:04:28;;;;;;;23.63;21.65;;;;;;;53.36;17.27;100434.31;4987359;28;96786;-82
2023/08/16 07:06:53;;;;;;;24.23;22.08;;;;;;;53.91;16.89;100444.56;4990134;28;96861;-83
2023/08/16 07:09:19;;;;;;;26.85;23.98;;;;;;;54.24;16.22;100441.03;4983275;28;99066;-82
2023/08/16 07:11:45;;;;;;;24.50;22.33;;;;;;;54.52;16.34;100434.81;4991414;28;98765;-82
2023/08/16 07:14:11;;;;;;;23.55;21.85;;;;;;;54.88;15.90;100436.94;4984188;28;97107;-82
2023/08/16 07:16:38;;;;;;;23.95;22.15;;;;;;;55.63;15.48;100427.41;4983618;28;96858;-82
2023/08/16 07:19:04;;;;;;;23.75;21.83;;;;;;;56.22;14.64;100421.22;4991983;28;98795;-83
2023/08/16 07:21:29;;;;;;;22.77;21.23;;;;;;;56.54;14.72;100432.59;4981008;28;98267;-83
2023/08/16 07:23:55;;;;;;;23.17;21.63;;;;;;;56.96;14.75;100426.47;4982751;28;96726;-83
2023/08/16 07:26:21;;;;;;;23.17;21.63;;;;;;;57.13;14.24;100415.63;4977146;28;96788;-83
2023/08/16 07:28:46;;;;;;;23.25;21.65;;;;;;;57.45;14.74;100424.09;4982146;28;98917;-83
2023/08/16 07:31:12;;;;;;;23.77;21.98;;;;;;;57.89;14.16;100423.09;4985627;28;98531;-83
2023/08/16 07:33:37;;;;;;;26.05;24.23;;;;;;;58.34;13.46;100413.97;4989503;28;97139;-83
2023/08/16 07:36:03;;;;;;;23.63;21.73;;;;;;;58.77;13.82;100417.63;4985902;28;96982;-83
2023/08/16 07:38:32;;;;;;;23.98;22.17;;;;;;;59.25;13.50;100422.88;4986453;28;99572;-83
2023/08/16 07:40:58;;;;;;;25.08;22.95;;;;;;;59.38;13.88;100417.84;4970397;28;98596;-83
2023/08/16 07:43:24;;;;;;;24.02;22.33;;;;;;;59.69;12.79;100428.81;4975561;28;97073;-82
2023/08/16 07:45:52;;;;;;;23.27;21.52;;;;;;;60.37;12.70;100420.38;4988426;28;96940;-83
2023/08/16 07:48:18;;;;;;;24.10;22.55;;;;;;;60.61;11.92;100421.88;4973365;28;99192;-83
2023/08/16 07:50:45;;;;;;;23.80;22.10;;;;;;;60.90;12.58;100422.97;4972718;28;98448;-83
2023/08/16 07:53:11;;;;;;;24.63;22.83;;;;;;;61.27;12.08;100417.22;4965412;28;97023;-83
2023/08/16 07:55:37;;;;;;;24.90;23.33;;;;;;;61.67;11.84;100423.16;4992670;28;97074;-83
2023/08/16 07:58:03;;;;;;;25.40;23.63;;;;;;;61.99;11.57;100409.91;4995013;28;99118;-83
2023/08/16 08:00:29;;;;;;;24.80;22.90;;;;;;;62.45;11.86;100409.25;4994813;28;98537;-83
2023/08/16 08:02:55;;;;;;;25.33;23.65;;;;;;;62.69;11.29;100401.16;4990901;28;97268;-83
2023/08/16 08:05:21;;;;;;;25.10;23.10;;;;;;;63.11;11.15;100411.75;4991352;28;96894;-83
2023/08/16 08:07:48;;;;;;;29.13;27.13;;;;;;;63.39;10.71;100407.22;4987565;28;98855;-83
2023/08/16 08:10:14;;;;;;;26.27;24.67;;;;;;;63.72;10.62;100413.66;4984271;28;98643;-83
2023/08/16 08:12:47;;;;;;;29.48;27.05;;;;;;;63.83;10.66;100414.41;4983398;28;96866;-83
2023/08/16 08:15:13;;;;;;;29.25;27.00;;;;;;;64.13;10.82;100413.09;4986531;28;97364;-83
2023/08/16 08:17:39;;;;;;;28.63;26.17;;;;;;;64.60;10.07;100405.03;4994192;28;98505;-83
2023/08/16 08:20:05;;;;;;;31.20;29.10;;;;;;;64.70;10.54;100409.84;4979277;28;98794;-83
2023/08/16 08:22:31;;;;;;;30.50;28.27;;;;;;;64.81;10.68;100406.91;4988655;28;96973;-83
2023/08/16 08:24:56;;;;;;;30.43;28.40;;;;;;;64.80;10.09;100403.25;4994900;28;96709;-83
2023/08/16 08:27:22;;;;;;;29.90;28.03;;;;;;;65.22;9.59;100411.84;4984158;28;99135;-83
2023/08/16 08:29:47;;;;;;;33.17;30.97;;;;;;;65.37;9.59;100407.59;4992428;28;97213;-83
2023/08/16 08:32:13;;;;;;;31.57;29.23;;;;;;;65.72;9.98;100408.44;4994528;28;96846;-83
2023/08/16 08:34:39;;;;;;;33.70;31.50;;;;;;;65.97;9.76;100408.88;4992046;28;97535;-83
2023/08/16 08:37:04;;;;;;;34.15;31.85;;;;;;;65.36;9.42;100408.81;4994324;28;98022;-84
2023/08/16 08:39:32;;;;;;;34.60;32.60;;;;;;;65.97;9.76;100408.09;4990281;28;99117;-84
2023/08/16 08:41:57;;;;;;;35.33;32.83;;;;;;;66.37;9.81;100402.66;4993982;28;97390;-83
2023/08/16 08:44:24;;;;;;;38.00;34.40;;;;;;;66.53;9.71;100404.84;4976636;28;96997;-83
2023/08/16 08:46:49;;;;;;;35.38;33.25;;;;;;;66.54;9.21;100397.88;4976625;28;97950;-83
2023/08/16 08:49:15;;;;;;;36.80;34.28;;;;;;;66.71;9.50;100408.19;4958023;28;98517;-83
2023/08/16 08:51:41;;;;;;;40.05;36.30;;;;;;;66.58;9.03;100410.88;4957568;28;96852;-83
2023/08/16 08:54:07;;;;;;;;;;;;;;;66.46;9.72;100410.66;4979244;28;97087;-83
2023/08/16 08:56:32;;;;;;;36.42;33.63;;;;;;;66.19;9.51;100408.59;4993513;28;99164;-83
2023/08/16 08:59:01;;;;;;;37.30;34.90;;;;;;;65.78;9.91;100408.75;4994470;28;98617;-83
2023/08/16 09:01:27;;;;;;;36.22;33.88;;;;;;;65.18;9.58;100402.53;4990834;28;97217;-83
2023/08/16 09:03:53;;;;;;;;;;;;;;;64.53;9.67;100413.63;4986023;28;96889;-83
2023/08/16 09:06:19;;;;;;;34.85;32.50;;;;;;;63.94;10.94;100417.22;4975848;28;99028;-83
2023/08/16 09:08:45;;;;;;;34.65;32.10;;;;;;;63.03;11.21;100412.97;4969802;28;98753;-83
2023/08/16 09:11:13;;;;;;;32.42;30.42;;;;;;;62.25;11.44;100415.69;4972994;28;97337;-83
2023/08/16 09:13:39;;;;;;;32.17;29.98;;;;;;;61.30;11.78;100422.13;4962303;28;96821;-83
2023/08/16 09:16:04;;;;;;;31.80;29.90;;;;;;;60.35;12.08;100411.47;4981719;28;98888;-83
2023/08/16 09:18:30;;;;;;;29.73;27.83;;;;;;;58.40;12.92;100417.34;4979202;28;98284;-82
2023/08/16 09:20:59;;;;;;;30.48;28.08;;;;;;;56.55;14.21;100420.97;4988843;28;96822;-82
2023/08/16 09:23:25;;;;;;;25.33;23.77;;;;;;;54.73;16.19;100421.59;4988391;28;97211;-83
2023/08/16 09:25:51;;;;;;;25.63;23.83;;;;;;;53.07;17.20;100419.09;4969190;28;99290;-83
2023/08/16 09:28:17;;;;;;;25.53;23.83;;;;;;;51.58;17.89;100420.22;4993540;28;98412;-82
2023/08/16 09:30:43;;;;;;;24.67;22.88;;;;;;;50.64;19.29;100422.19;4992750;28;97041;-83
2023/08/16 09:33:12;;;;;;;23.85;22.15;;;;;;;49.76;19.98;100430.06;4991444;28;96823;-82
2023/08/16 09:35:43;;;;;;;24.75;23.00;;;;;;;48.73;20.48;100426.41;4991467;28;99021;-81
2023/08/16 09:38:09;;;;;;;24.35;22.65;;;;;;;47.52;21.60;100415.88;4986362;28;98809;-82
2023/08/16 09:40:35;;;;;;;23.48;21.92;;;;;;;46.96;22.11;100429.19;4989115;28;96762;-82
2023/08/16 09:43:01;;;;;;;23.50;21.80;;;;;;;46.51;22.75;100433.16;4993212;28;96984;-82
2023/08/16 09:45:34;;;;;;;22.63;21.02;;;;;;;45.95;22.65;100425.16;4981805;28;98543;-82
2023/08/16 09:48:01;;;;;;;22.25;20.65;;;;;;;45.80;23.70;100424.09;4975525;28;98916;-82
2023/08/16 09:50:32;;;;;;;22.80;21.13;;;;;;;45.47;23.86;100419.19;4974464;28;97196;-82
2023/08/16 09:52:58;;;;;;;23.02;21.38;;;;;;;44.63;24.82;100424.28;4981740;28;96837;-82
2023/08/16 09:55:29;;;;;;;23.08;21.52;;;;;;;44.08;25.63;100420.28;4989819;28;99269;-82
2023/08/16 09:57:59;;;;;;;22.30;20.90;;;;;;;43.90;25.46;100416.03;4975425;28;98780;-82
2023/08/16 10:00:27;;;;;;;24.42;22.45;;;;;;;43.65;25.50;100419.53;4990838;28;97309;-82
2023/08/16 10:02:56;;;;;;;23.80;22.10;;;;;;;43.39;26.11;100422.13;4961640;28;97393;-82
2023/08/16 10:05:23;;;;;;;24.13;22.15;;;;;;;42.93;26.64;100427.31;4988936;28;98180;-82
2023/08/16 10:07:49;;;;;;;22.58;21.17;;;;;;;42.72;26.54;100426.28;4985730;28;98488;-81
2023/08/16 10:10:16;;;;;;;23.10;21.40;;;;;;;42.57;26.26;100435.28;4981918;28;96747;-82
2023/08/16 10:12:42;;;;;;;23.48;21.90;;;;;;;42.26;27.13;100426.66;4981961;28;96933;-81
2023/08/16 10:15:09;;;;;;;24.15;22.13;;;;;;;42.01;27.84;100429.16;4979772;28;99400;-82
2023/08/16 10:17:39;;;;;;;23.15;21.65;;;;;;;41.78;28.08;100422.78;4978226;28;98915;-82
2023/08/16 10:20:09;;;;;;;23.05;21.63;;;;;;;41.71;27.64;100421.28;4987609;28;97168;-82
2023/08/16 10:22:38;;;;;;;23.63;21.92;;;;;;;41.54;27.78;100433.22;4952652;28;96839;-82
2023/08/16 10:25:12;;;;;;;22.20;20.80;;;;;;;41.36;28.09;100426.00;4987350;28;99013;-81
2023/08/16 10:27:39;;;;;;;23.40;21.70;;;;;;;40.96;27.81;100434.47;4973485;28;98688;-82
2023/08/16 10:30:06;;;;;;;24.48;22.67;;;;;;;40.91;28.44;100432.47;4961490;28;96797;-81
2023/08/16 10:32:32;;;;;;;22.58;20.77;;;;;;;40.71;28.12;100427.44;4989805;28;97014;-81
2023/08/16 10:34:59;;;;;;;23.15;21.35;;;;;;;40.44;28.76;100434.66;4989666;28;98860;-81
2023/08/16 10:37:26;;;;;;;23.25;21.25;;;;;;;40.23;29.14;100436.16;4972124;28;98431;-82
2023/08/16 10:39:51;;;;;;;23.77;22.08;;;;;;;39.90;29.48;100425.84;4970758;28;97088;-82
2023/08/16 10:42:17;;;;;;;23.40;21.58;;;;;;;39.73;30.00;100429.31;4983216;28;97034;-82
2023/08/16 10:44:51;;;;;;;23.15;21.42;;;;;;;39.74;30.94;100430.16;4975801;28;98834;-82
2023/08/16 10:47:30;;;;;;;24.38;22.60;;;;;;;39.58;30.33;100427.06;4978194;28;99046;-81
2023/08/16 10:49:56;;;;;;;23.23;21.52;;;;;;;39.51;30.89;100428.31;4984195;28;96767;-81
2023/08/16 10:52:28;;;;;;;23.17;21.63;;;;;;;39.40;31.27;100424.47;4979146;28;97352;-81
2023/08/16 10:54:57;;;;;;;23.17;21.58;;;;;;;39.27;31.31;100428.28;4992330;28;98291;-81
2023/08/16 10:57:25;;;;;;;23.65;22.00;;;;;;;39.21;31.24;100428.38;4974521;28;98842;-81
2023/08/16 11:00:05;;;;;;;22.50;20.67;;;;;;;38.94;30.83;100437.06;4990208;28;97135;-81
2023/08/16 11:02:32;;;;;;;22.33;20.83;;;;;;;38.91;31.72;100424.66;4968048;28;96861;-81
2023/08/16 11:04:59;;;;;;;22.52;21.13;;;;;;;38.80;31.06;100421.88;4991947;28;98876;-81
2023/08/16 11:07:25;;;;;;;23.63;21.90;;;;;;;38.54;30.82;100417.66;4986405;28;98372;-82